Flight Track Log - Related Links

Times and Time Zones

All times are in EDT time to prevent confusion due to time zone crossing. See the AWE1913 flight status page for this flight to view local times or setup timezone preferences in your user account.

Time Position Orientation Groundspeed Altitude Reporting Facility
EDT Latitude Longitude Course Direction KTS MPH feet Rate Location/Type
Fri 10:48:46 AM 39.8767 -75.2161 185° South 172 198 1,000  Level FAA TRACON SMA TRACON (SMA)
Fri 10:49:06 AM 39.8742 -75.1969 100° East 167 192 1,600 1,350 Climbing FAA TRACON SMA TRACON (SMA)
Fri 10:49:26 AM 39.8694 -75.1761 106° East 201 231 1,900 1,350 Climbing FAA TRACON SMA TRACON (SMA)
Fri 10:49:46 AM 39.8647 -75.1544 106° East 199 229 2,500 2,100 Climbing FAA TRACON SMA TRACON (SMA)
Fri 10:50:06 AM 39.8575 -75.1278 109° East 200 230 3,300 1,650 Climbing FAA TRACON SMA TRACON (SMA)
Fri 10:50:26 AM 39.8450 -75.1133 138° Southeast 198 228 3,600 1,050 Climbing FAA TRACON SMA TRACON (SMA)
Fri 10:50:46 AM 39.8292 -75.1058 160° South 214 246 4,000 2,250 Climbing FAA TRACON SMA TRACON (SMA)
Fri 10:51:00 AM 39.5406 -75.3086 189° South  Level FlightAware Approximate
Fri 10:51:06 AM 39.8058 -75.0942 159° South 220 253 5,100  Level FAA TRACON SMA TRACON (SMA)
Fri 10:51:26 AM 39.7875 -75.0856 160° South 225 259 6,000 2,550 Climbing FAA TRACON SMA TRACON (SMA)
Fri 10:51:46 AM 39.7692 -75.0761 158° South 227 261 6,800 3,000 Climbing FAA TRACON SMA TRACON (SMA)
Fri 10:52:00 AM 39.4297 -75.3337 185° South  Level FlightAware Approximate
Fri 10:52:06 AM 39.7456 -75.0694 168° South 220 253 8,000  Level FAA TRACON SMA TRACON (SMA)
Fri 10:52:26 AM 39.7281 -75.0742 192° South 202 232 8,900 1,950 Climbing FAA TRACON SMA TRACON (SMA)
Fri 10:52:46 AM 39.7139 -75.0878 216° Southwest 214 246 9,300 1,950 Climbing FAA TRACON SMA TRACON (SMA)
Fri 10:53:00 AM 39.3172 -75.3463 185° South  Level FlightAware Approximate
Fri 10:53:06 AM 39.6972 -75.1111 227° Southwest 233 268 10,200  Level FAA TRACON SMA TRACON (SMA)
Fri 10:53:26 AM 39.6800 -75.1247 211° Southwest 242 278 10,700 1,050 Climbing FAA TRACON SMA TRACON (SMA)
Fri 10:53:46 AM 39.6608 -75.1300 192° South 260 299 10,900 1,300 Climbing FAA TRACON SMA TRACON (SMA)
Fri 10:54:26 AM 39.6061 -75.1478 194° South 285 328 12,000 1,100 Climbing FAA TRACON SMA TRACON (SMA)
Fri 10:54:46 AM 39.5844 -75.1536 192° South 294 338 12,000  Level FAA TRACON SMA TRACON (SMA)
Fri 10:55:06 AM 39.5525 -75.1633 193° South 335 386 12,000 300 Level FAA TRACON SMA TRACON (SMA)
Fri 10:55:26 AM 39.5161 -75.1739 193° South 353 406 12,200 1,050 Climbing FAA TRACON SMA TRACON (SMA)
Fri 10:55:46 AM 39.4847 -75.1831 193° South 369 425 12,700 1,500 Climbing FAA TRACON SMA TRACON (SMA)
Fri 10:56:06 AM 39.4539 -75.1919 193° South 368 423 13,200 1,650 Climbing FAA TRACON SMA TRACON (SMA)
Fri 10:56:26 AM 39.4147 -75.2033 193° South 371 427 13,800 1,610 Climbing FAA TRACON SMA TRACON (SMA)
Fri 10:56:47 AM 39.3831 -75.2117 191° South 373 429 14,300 1,463 Climbing FAA TRACON SMA TRACON (SMA)
Fri 10:57:07 AM 39.3511 -75.2217 194° South 378 435 14,800 1,692 Climbing FAA TRACON SMA TRACON (SMA)
Fri 10:57:26 AM 39.3111 -75.2333 193° South 381 438 15,400 1,350 Climbing FAA TRACON SMA TRACON (SMA)
Fri 10:57:47 AM 39.2794 -75.2428 193° South 385 443 15,700 585 Climbing FAA TRACON SMA TRACON (SMA)
Fri 10:58:07 AM 39.2706 -75.2450 191° South 386 444 15,800 150 Climbing FAA TRACON SMA TRACON (SMA)
Fri 10:58:27 AM 39.2706 -75.2450 180° South 386 444 15,800 1,786 Level FAA TRACON SMA TRACON (SMA)
Fri 10:59:31 AM 39.0881 -75.2975 193° South 395 455 18,300 2,468 Climbing Washington Center
Fri 11:00:31 AM 38.9817 -75.3381 197° South 395 455 20,900 2,250 Climbing Washington Center
Fri 11:01:31 AM 38.8944 -75.4156 215° Southwest 382 440 22,800 1,700 Climbing Washington Center
Fri 11:02:31 AM 38.8089 -75.4958 216° Southwest 382 440 24,300 1,300 Climbing Washington Center
Fri 11:03:31 AM 38.7047 -75.5197 190° South 380 437 25,400 1,050 Climbing Washington Center
Fri 11:04:31 AM 38.5900 -75.5172 179° South 385 443 26,400 1,000 Climbing Washington Center
Fri 11:05:31 AM 38.4733 -75.5147 179° South 406 467 27,400 800 Climbing Washington Center
Fri 11:06:31 AM 38.3544 -75.5175 181° South 419 482 28,000 550 Climbing Washington Center
Fri 11:07:31 AM 38.2525 -75.5628 199° South 432 497 28,500 450 Climbing Washington Center
Fri 11:08:31 AM 38.1397 -75.6339 206° Southwest 437 503 28,900 550 Climbing Washington Center
Fri 11:09:31 AM 38.0292 -75.7131 209° Southwest 450 518 29,600 600 Climbing Washington Center
Fri 11:10:31 AM 37.9144 -75.7839 206° Southwest 455 524 30,100 700 Climbing Washington Center
Fri 11:11:31 AM 37.7828 -75.8597 204° Southwest 460 529 31,000 800 Climbing Washington Center
Fri 11:12:31 AM 37.6867 -75.9250 208° Southwest 460 529 31,700 650 Climbing Washington Center
Fri 11:13:31 AM 37.5719 -75.9953 206° Southwest 460 529 32,300 950 Climbing Washington Center
Fri 11:14:31 AM 37.4569 -76.0653 206° Southwest 460 529 33,600 850 Climbing Washington Center
Fri 11:15:31 AM 37.3439 -76.1325 205° Southwest 460 529 34,000 900 Climbing Washington Center
Fri 11:16:31 AM 37.2183 -76.2022 204° Southwest 449 517 35,400 1,000 Climbing Washington Center
Fri 11:17:31 AM 37.1097 -76.2689 206° Southwest 444 511 36,000 300 Climbing Washington Center
Fri 11:18:31 AM 37.0008 -76.3356 206° Southwest 444 511 36,000  Level Washington Center
Fri 11:19:31 AM 36.8919 -76.3994 205° Southwest 439 505 36,000  Level Washington Center
Fri 11:20:31 AM 36.7831 -76.4658 206° Southwest 439 505 36,000  Level Washington Center
Fri 11:21:31 AM 36.6867 -76.5217 205° Southwest 439 505 36,000  Level Washington Center
Fri 11:22:31 AM 36.5567 -76.5772 199° South 446 513 36,000  Level Washington Center
Fri 11:23:31 AM 36.4417 -76.6300 200° South 446 513 36,000  Level Washington Center
Fri 11:24:31 AM 36.3244 -76.6669 194° South 446 513 36,000  Level Washington Center
Fri 11:25:31 AM 36.2053 -76.6936 190° South 440 506 36,000  Level Washington Center
Fri 11:26:31 AM 36.0839 -76.7153 188° South 440 506 36,000  Level Washington Center
Fri 11:27:31 AM 35.9628 -76.7392 189° South 440 506 36,000  Level Washington Center
Fri 11:28:31 AM 35.8475 -76.7861 198° South 440 506 36,000  Level Washington Center
Fri 11:29:31 AM 35.7364 -76.8458 204° Southwest 440 506 36,000  Level Washington Center
Fri 11:30:31 AM 35.6483 -76.8931 204° Southwest 440 506 36,000  Level Washington Center
Fri 11:31:31 AM 35.5286 -76.9575 204° Southwest 434 499 36,000  Level Washington Center
Fri 11:32:31 AM 35.4175 -77.0117 202° Southwest 434 499 36,000  Level Washington Center
Fri 11:33:31 AM 35.3019 -77.0733 204° Southwest 439 505 36,000  Level Washington Center
Fri 11:34:31 AM 35.1906 -77.1322 203° Southwest 439 505 36,000  Level Washington Center
Fri 11:35:31 AM 35.0792 -77.1883 202° Southwest 439 505 36,000  Level Washington Center
Fri 11:36:31 AM 34.9617 -77.2494 203° Southwest 445 512 36,000 50 Level Washington Center
Fri 11:37:31 AM 34.8481 -77.3081 203° Southwest 445 512 36,100  Climbing Washington Center
Fri 11:38:31 AM 34.7344 -77.3711 205° Southwest 445 512 36,000 -50 Descending Washington Center
Fri 11:39:31 AM 34.6189 -77.4269 202° Southwest 445 512 36,000  Level Washington Center
Fri 11:40:31 AM 34.5014 -77.4694 197° South 445 512 36,000  Level Washington Center
Fri 11:41:31 AM 34.3758 -77.4969 190° South 450 518 36,000  Level Washington Center
Fri 11:42:31 AM 34.2500 -77.5242 190° South 461 531 36,000  Level Washington Center
Fri 11:43:31 AM 34.1244 -77.5489 189° South 461 531 36,000  Level Washington Center
Fri 11:43:56 AM 34.0700 -77.5581 188° South 466 536 36,000  Level Jacksonville Center
Fri 11:44:56 AM 33.9439 -77.5883 191° South 466 536 36,000  Level Jacksonville Center
Fri 11:45:56 AM 33.8178 -77.6158 190° South 466 536 36,000  Level Jacksonville Center
Fri 11:46:56 AM 33.6994 -77.6256 184° South 460 529 36,000  Level Jacksonville Center
Fri 11:47:56 AM 33.5511 -77.6742 195° South 468 539 36,000  Level Jacksonville Center
Fri 11:48:55 AM 33.4269 -77.6989 189° South 468 539 36,000  Level Jacksonville Center
Fri 11:49:55 AM 33.2986 -77.7264 190° South 468 539 36,000  Level Jacksonville Center
Fri 11:50:55 AM 33.1728 -77.7558 191° South 468 539 36,000  Level Jacksonville Center
Fri 11:51:56 AM 33.0464 -77.7806 189° South 468 539 36,000  Level Jacksonville Center
Fri 11:52:56 AM 32.9158 -77.8078 190° South 468 539 36,000  Level Jacksonville Center
Fri 11:53:55 AM 32.7919 -77.8344 190° South 468 539 36,000  Level Jacksonville Center
Fri 11:54:55 AM 32.6614 -77.8617 190° South 468 539 36,000  Level Jacksonville Center
Fri 11:55:56 AM 32.5331 -77.8883 190° South 468 539 36,000  Level Jacksonville Center
Fri 11:56:55 AM 32.4069 -77.9150 190° South 468 539 36,000  Level Jacksonville Center
Fri 11:57:55 AM 32.2764 -77.9417 190° South 468 539 36,000  Level Jacksonville Center
Fri 11:58:56 AM 32.1503 -77.9731 192° South 468 539 36,000  Level Jacksonville Center
Fri 11:59:56 AM 32.0219 -77.9972 189° South 468 539 36,000  Level Jacksonville Center
Fri 12:00:56 PM 31.8936 -78.0261 191° South 468 539 36,000  Level Jacksonville Center
Fri 12:01:56 PM 31.7631 -78.0525 190° South 468 539 36,000  Level Jacksonville Center
Fri 12:02:56 PM 31.6369 -78.0858 193° South 468 539 36,000  Level Jacksonville Center
Fri 12:03:55 PM 31.5086 -78.1119 190° South 468 539 36,000  Level Jacksonville Center
Fri 12:04:56 PM 31.3803 -78.1406 191° South 473 544 36,000  Level Jacksonville Center
Fri 12:05:56 PM 31.2539 -78.1639 189° South 473 544 36,000  Level Jacksonville Center
Fri 12:06:56 PM 31.1233 -78.1897 190° South 473 544 36,000  Level Jacksonville Center
Fri 12:07:56 PM 30.9950 -78.2253 193° South 467 537 36,000  Level Jacksonville Center
Fri 12:08:56 PM 30.8711 -78.2556 192° South 468 539 36,000  Level Jacksonville Center
Fri 12:09:56 PM 30.7403 -78.2814 190° South 468 539 36,000  Level Jacksonville Center
Fri 12:11:28 PM 30.5583 -78.3200 190° South 470 541 36,000  Level Miami Center
Fri 12:12:28 PM 30.4311 -78.3469 190° South 470 541 36,000  Level Miami Center
Fri 12:13:28 PM 30.2997 -78.3403 177° South 478 550 36,000  Level Miami Center
Fri 12:15:28 PM 30.0336 -78.2864 170° South 488 562 36,000  Level Miami Center
Fri 12:16:28 PM 29.8856 -78.2653 173° South 487 560 36,000  Level Miami Center
Fri 12:17:28 PM 29.7567 -78.2422 171° South 472 543 36,000  Level Miami Center
Fri 12:18:28 PM 29.6297 -78.2192 171° South 479 551 36,000  Level Miami Center
Fri 12:19:28 PM 29.4861 -78.1864 169° South 494 568 36,000 50 Level Miami Center
Fri 12:20:28 PM 29.3486 -78.1583 170° South 494 568 36,100 50 Climbing Miami Center
Fri 12:21:28 PM 29.2131 -78.1356 172° South 499 574 36,100 -50 Level Miami Center
Fri 12:22:28 PM 29.0839 -78.1125 171° South 495 570 36,000 -150 Descending Miami Center
Fri 12:23:28 PM 28.9467 -78.0850 170° South 489 563 35,800 -400 Descending Miami Center
Fri 12:24:28 PM 28.8153 -78.0575 170° South 490 564 35,200 -650 Descending Miami Center
Fri 12:25:28 PM 28.6797 -78.0347 172° South 500 575 34,500 -600 Descending Miami Center
Fri 12:26:28 PM 28.5381 -78.0072 170° South 500 575 34,000 -250 Descending Miami Center
Fri 12:27:28 PM 28.4089 -77.9822 170° South 492 566 34,000  Level Miami Center
Fri 12:28:28 PM 28.2672 -77.9572 171° South 497 572 34,000  Level Miami Center
Fri 12:29:28 PM 28.1317 -77.9325 171° South 498 573 34,000  Level Miami Center
Fri 12:30:28 PM 27.9939 -77.9075 171° South 504 580 34,000  Level Miami Center
Fri 12:31:28 PM 27.8564 -77.8806 170° South 504 580 34,000  Level Miami Center
Fri 12:32:28 PM 27.7167 -77.8558 171° South 510 587 34,000  Level Miami Center
Fri 12:33:28 PM 27.5789 -77.8289 170° South 505 581 34,000  Level Miami Center
Fri 12:34:28 PM 27.4475 -77.8044 171° South 497 572 34,000  Level Miami Center
Fri 12:35:28 PM 27.3036 -77.7844 173° South 497 572 34,000 -400 Level Miami Center
Fri 12:36:28 PM 27.1639 -77.7531 169° South 504 580 33,200 -1,450 Descending Miami Center
Fri 12:37:28 PM 27.0219 -77.7308 172° South 504 580 31,100 -2,200 Descending Miami Center
Fri 12:38:28 PM 26.8800 -77.7089 172° South 509 586 28,800 -2,300 Descending Miami Center
Fri 12:39:28 PM 26.7361 -77.6800 170° South 520 598 26,500 -2,450 Descending Miami Center
Fri 12:40:28 PM 26.6003 -77.6558 171° South 520 598 23,900 -2,600 Descending Miami Center
Fri 12:41:28 PM 26.4647 -77.6317 171° South 508 585 21,300 -2,600 Descending Miami Center
Fri 12:42:28 PM 26.3353 -77.6006 168° South 489 563 18,700 -2,550 Descending Miami Center
Fri 12:43:28 PM 26.2100 -77.5814 172° South 474 545 16,200 -2,500 Descending Miami Center
Fri 12:44:28 PM 26.0972 -77.5597 170° South 445 512 13,700 -1,550 Descending Miami Center
Fri 12:45:28 PM 25.9803 -77.5431 173° South 431 496 13,100 -300 Descending Miami Center
Fri 12:46:28 PM 25.8719 -77.5192 169° South 414 476 13,100  Level Miami Center
Fri 12:47:28 PM 25.7800 -77.5072 173° South 377 434 13,100 -450 Level Miami Center
Fri 12:48:28 PM 25.6986 -77.4906 170° South 333 383 12,200 -1,350 Descending Miami Center
Fri 12:49:28 PM 25.6128 -77.4833 176° South 314 361 10,400 -1,950 Descending Miami Center
Fri 12:50:28 PM 25.5314 -77.4783 177° South 303 349 8,300 -1,950 Descending Miami Center
Fri 12:51:28 PM 25.4644 -77.4756 178° South 292 336 6,500 -1,800 Descending Miami Center

Login

Don't have an account? Register now (free) for customized features, flight alerts, and more!